Time;durP1;ratioP1;P1;durP2;ratioP2;P2;SDS_P1;SDS_P2;PMS_P1;PMS_P2;Temp;Humidity;BMP_temperature;BMP_pressure;BME280_temperature;BME280_humidity;BME280_pressure;Samples;Min_cycle;Max_cycle;Signal;HPM_P1;HPM_P2
2023/11/24 00:00:11;;;;;;;25.37;22.53;;;;;;;;;;338675;29;1278;-80
2023/11/24 00:00:22;;;;;;;26.35;22.50;;;;;;;;;;341471;28;1364;-79
2023/11/24 00:00:33;;;;;;;26.48;22.40;;;;;;;;;;344059;28;914;-87
2023/11/24 00:00:43;;;;;;;28.17;22.80;;;;;;;;;;343032;28;856;-80
2023/11/24 00:00:53;;;;;;;28.70;23.23;;;;;;;;;;341666;29;1509;-80
2023/11/24 00:01:04;;;;;;;28.48;23.48;;;;;;;;;;342772;28;887;-80
2023/11/24 00:01:15;;;;;;;27.77;23.13;;;;;;;;;;340012;29;955;-80
2023/11/24 00:01:26;;;;;;;26.33;22.33;;;;;;;;;;340380;29;884;-80
2023/11/24 00:01:37;;;;;;;25.23;21.15;;;;;;;;;;341507;28;1254;-88
2023/11/24 00:01:47;;;;;;;26.37;21.13;;;;;;;;;;337790;29;805;-89
2023/11/24 00:01:58;;;;;;;26.70;21.42;;;;;;;;;;339116;29;891;-80
2023/11/24 00:02:09;;;;;;;26.33;22.10;;;;;;;;;;340079;29;1228;-80
2023/11/24 00:02:19;;;;;;;25.60;22.77;;;;;;;;;;341545;29;1205;-80
2023/11/24 00:02:31;;;;;;;25.20;22.48;;;;;;;;;;340094;29;1571;-80
2023/11/24 00:02:43;;;;;;;26.25;22.38;;;;;;;;;;337685;29;920;-88
2023/11/24 00:02:54;;;;;;;26.77;22.10;;;;;;;;;;340267;29;1142;-80
2023/11/24 00:03:05;;;;;;;28.35;22.67;;;;;;;;;;340205;29;1125;-81
2023/11/24 00:03:15;;;;;;;28.23;22.73;;;;;;;;;;340228;29;1155;-81
2023/11/24 00:03:25;;;;;;;29.15;22.58;;;;;;;;;;340243;29;1202;-80
2023/11/24 00:03:36;;;;;;;27.87;22.20;;;;;;;;;;340049;29;836;-89
2023/11/24 00:03:47;;;;;;;28.35;22.02;;;;;;;;;;340263;29;1300;-87
2023/11/24 00:03:58;;;;;;;28.15;21.60;;;;;;;;;;340369;29;911;-80
2023/11/24 00:04:09;;;;;;;28.10;22.05;;;;;;;;;;338774;29;1341;-80
2023/11/24 00:04:19;;;;;;;25.95;22.02;;;;;;;;;;339009;29;899;-80
2023/11/24 00:04:30;;;;;;;26.47;22.33;;;;;;;;;;338838;29;963;-80
2023/11/24 00:04:40;;;;;;;25.20;22.05;;;;;;;;;;337591;29;1486;-80
2023/11/24 00:04:51;;;;;;;25.43;22.23;;;;;;;;;;338954;29;1308;-88
2023/11/24 00:05:03;;;;;;;25.73;23.00;;;;;;;;;;341508;29;1282;-82
2023/11/24 00:05:13;;;;;;;26.20;23.13;;;;;;;;;;340201;29;1232;-80
2023/11/24 00:05:24;;;;;;;26.33;22.47;;;;;;;;;;338998;29;1524;-80
2023/11/24 00:05:34;;;;;;;26.83;21.83;;;;;;;;;;337272;29;1200;-81
2023/11/24 00:05:46;;;;;;;26.80;21.67;;;;;;;;;;338978;29;1368;-88
2023/11/24 00:05:56;;;;;;;27.15;21.83;;;;;;;;;;338940;29;1375;-80
2023/11/24 00:06:07;;;;;;;26.58;21.98;;;;;;;;;;337655;29;817;-81
2023/11/24 00:06:19;;;;;;;26.13;22.13;;;;;;;;;;341435;29;1390;-80
2023/11/24 00:06:32;;;;;;;25.25;21.60;;;;;;;;;;341466;29;923;-80
2023/11/24 00:06:43;;;;;;;25.95;21.80;;;;;;;;;;341730;29;907;-86
2023/11/24 00:06:55;;;;;;;27.63;22.17;;;;;;;;;;338949;29;1158;-80
2023/11/24 00:07:07;;;;;;;29.20;22.15;;;;;;;;;;340039;29;1245;-80
2023/11/24 00:07:17;;;;;;;29.20;21.90;;;;;;;;;;339007;29;893;-80
2023/11/24 00:07:29;;;;;;;27.73;21.90;;;;;;;;;;340298;29;1163;-80
2023/11/24 00:07:39;;;;;;;27.45;22.17;;;;;;;;;;340137;29;1275;-80
2023/11/24 00:07:50;;;;;;;26.63;21.83;;;;;;;;;;341599;29;1134;-80
2023/11/24 00:08:00;;;;;;;26.05;22.02;;;;;;;;;;341477;29;1353;-80
2023/11/24 00:08:11;;;;;;;26.33;21.87;;;;;;;;;;340117;29;1242;-80
2023/11/24 00:08:21;;;;;;;26.08;21.13;;;;;;;;;;341587;29;1191;-79
2023/11/24 00:08:32;;;;;;;27.37;21.13;;;;;;;;;;340870;29;797;-83
2023/11/24 00:08:45;;;;;;;27.20;21.17;;;;;;;;;;341346;29;1303;-80
2023/11/24 00:08:56;;;;;;;26.35;21.45;;;;;;;;;;341606;28;1335;-80
2023/11/24 00:09:06;;;;;;;26.02;20.88;;;;;;;;;;340184;28;1172;-79
2023/11/24 00:09:17;;;;;;;25.63;20.80;;;;;;;;;;338913;29;1150;-80
2023/11/24 00:09:29;;;;;;;26.25;21.33;;;;;;;;;;338920;29;1452;-80
2023/11/24 00:09:39;;;;;;;27.77;21.20;;;;;;;;;;338615;29;1269;-80
2023/11/24 00:09:50;;;;;;;27.90;20.95;;;;;;;;;;338998;29;1410;-80
2023/11/24 00:10:00;;;;;;;27.60;20.87;;;;;;;;;;340199;29;1397;-80
2023/11/24 00:10:11;;;;;;;25.45;21.25;;;;;;;;;;340100;29;1225;-80
2023/11/24 00:10:22;;;;;;;24.90;21.60;;;;;;;;;;340144;29;1443;-79
2023/11/24 00:10:33;;;;;;;24.50;21.17;;;;;;;;;;338735;29;817;-87
2023/11/24 00:10:43;;;;;;;25.65;20.98;;;;;;;;;;337779;29;844;-81
2023/11/24 00:10:54;;;;;;;26.10;21.15;;;;;;;;;;338969;29;1340;-80
2023/11/24 00:11:05;;;;;;;27.63;21.58;;;;;;;;;;338743;29;1297;-80
2023/11/24 00:11:15;;;;;;;26.30;21.33;;;;;;;;;;340241;29;1336;-80
2023/11/24 00:11:26;;;;;;;25.77;20.90;;;;;;;;;;338928;29;1270;-80
2023/11/24 00:11:38;;;;;;;24.73;20.73;;;;;;;;;;340010;29;1210;-88
2023/11/24 00:11:48;;;;;;;26.40;21.05;;;;;;;;;;340234;29;1308;-88
2023/11/24 00:12:00;;;;;;;26.00;21.47;;;;;;;;;;342795;28;1483;-80
2023/11/24 00:12:10;;;;;;;26.60;22.05;;;;;;;;;;341312;28;1282;-80
2023/11/24 00:12:21;;;;;;;27.08;22.20;;;;;;;;;;341703;29;804;-79
2023/11/24 00:12:31;;;;;;;26.97;22.30;;;;;;;;;;337104;29;1248;-83
2023/11/24 00:12:42;;;;;;;25.75;21.85;;;;;;;;;;340397;29;887;-80
2023/11/24 00:12:52;;;;;;;25.40;21.83;;;;;;;;;;340397;29;817;-88
2023/11/24 00:13:03;;;;;;;24.85;21.13;;;;;;;;;;341355;29;1437;-88
2023/11/24 00:13:14;;;;;;;25.20;20.93;;;;;;;;;;338972;29;1486;-79
2023/11/24 00:13:24;;;;;;;24.52;20.55;;;;;;;;;;339048;29;820;-80
2023/11/24 00:13:35;;;;;;;25.43;21.47;;;;;;;;;;343787;28;1408;-80
2023/11/24 00:13:45;;;;;;;26.73;22.40;;;;;;;;;;344199;28;1293;-87
2023/11/24 00:13:56;;;;;;;28.10;22.23;;;;;;;;;;339020;29;923;-80
2023/11/24 00:14:06;;;;;;;27.83;21.90;;;;;;;;;;337549;29;1394;-80
2023/11/24 00:14:16;;;;;;;26.67;21.58;;;;;;;;;;338900;29;1419;-80
2023/11/24 00:14:27;;;;;;;25.77;21.43;;;;;;;;;;338836;29;1196;-80
2023/11/24 00:14:38;;;;;;;26.45;21.42;;;;;;;;;;338620;29;1422;-79
2023/11/24 00:14:49;;;;;;;26.58;20.85;;;;;;;;;;338984;29;1246;-88
2023/11/24 00:15:03;;;;;;;25.65;20.58;;;;;;;;;;340163;29;1334;-80
2023/11/24 00:15:14;;;;;;;26.98;21.35;;;;;;;;;;337616;29;1468;-80
2023/11/24 00:15:24;;;;;;;27.47;21.70;;;;;;;;;;337696;29;1202;-80
2023/11/24 00:15:36;;;;;;;27.88;22.02;;;;;;;;;;339951;29;832;-80
2023/11/24 00:15:47;;;;;;;26.58;22.02;;;;;;;;;;340415;29;853;-89
2023/11/24 00:15:57;;;;;;;26.92;22.15;;;;;;;;;;341147;29;847;-80
2023/11/24 00:16:09;;;;;;;24.83;21.43;;;;;;;;;;342866;28;1352;-89
2023/11/24 00:16:20;;;;;;;25.17;21.30;;;;;;;;;;339038;29;868;-80
2023/11/24 00:16:31;;;;;;;25.60;21.42;;;;;;;;;;340324;29;856;-80
2023/11/24 00:16:41;;;;;;;26.90;21.63;;;;;;;;;;341186;29;1265;-79
2023/11/24 00:16:52;;;;;;;27.50;21.17;;;;;;;;;;341625;29;1352;-82
2023/11/24 00:17:04;;;;;;;28.07;21.43;;;;;;;;;;340043;29;1166;-88
2023/11/24 00:17:14;;;;;;;26.80;20.85;;;;;;;;;;337617;29;1312;-80
2023/11/24 00:17:25;;;;;;;25.65;20.55;;;;;;;;;;338773;29;1907;-80
2023/11/24 00:17:38;;;;;;;24.23;20.23;;;;;;;;;;337358;29;841;-80
2023/11/24 00:17:50;;;;;;;24.88;20.63;;;;;;;;;;340340;29;919;-80
2023/11/24 00:18:01;;;;;;;25.55;20.73;;;;;;;;;;340226;29;860;-80
2023/11/24 00:18:12;;;;;;;25.50;20.95;;;;;;;;;;341693;29;1026;-79
2023/11/24 00:18:22;;;;;;;25.25;20.65;;;;;;;;;;341697;29;809;-79
2023/11/24 00:18:34;;;;;;;26.03;20.90;;;;;;;;;;341601;29;820;-83
2023/11/24 00:18:45;;;;;;;27.13;21.17;;;;;;;;;;341680;29;825;-79
2023/11/24 00:18:55;;;;;;;28.58;22.15;;;;;;;;;;341577;29;837;-80
2023/11/24 00:19:06;;;;;;;28.08;22.42;;;;;;;;;;341492;29;938;-89
2023/11/24 00:19:16;;;;;;;26.58;22.13;;;;;;;;;;339073;29;833;-80
2023/11/24 00:19:27;;;;;;;25.73;22.60;;;;;;;;;;339066;29;797;-80
2023/11/24 00:19:37;;;;;;;24.80;22.05;;;;;;;;;;341195;29;1357;-80
2023/11/24 00:19:48;;;;;;;24.97;21.87;;;;;;;;;;341599;29;1198;-89
2023/11/24 00:19:59;;;;;;;25.98;21.23;;;;;;;;;;340288;29;993;-80
2023/11/24 00:20:10;;;;;;;26.52;21.27;;;;;;;;;;341496;28;1423;-80
2023/11/24 00:20:21;;;;;;;25.75;21.00;;;;;;;;;;341688;29;939;-80
2023/11/24 00:20:31;;;;;;;24.83;20.67;;;;;;;;;;340174;29;1299;-80
2023/11/24 00:20:42;;;;;;;25.48;20.83;;;;;;;;;;340013;29;1524;-80
2023/11/24 00:20:55;;;;;;;26.37;21.00;;;;;;;;;;337713;29;813;-80
2023/11/24 00:21:06;;;;;;;26.63;21.77;;;;;;;;;;337668;29;880;-88
2023/11/24 00:21:17;;;;;;;26.02;21.70;;;;;;;;;;337756;29;885;-80
2023/11/24 00:21:27;;;;;;;27.93;21.80;;;;;;;;;;338921;29;1127;-79
2023/11/24 00:21:39;;;;;;;27.58;21.42;;;;;;;;;;337296;29;1281;-80
2023/11/24 00:21:49;;;;;;;26.52;21.75;;;;;;;;;;339041;29;857;-80
2023/11/24 00:22:00;;;;;;;27.65;21.92;;;;;;;;;;338973;29;765;-80
2023/11/24 00:22:11;;;;;;;27.93;22.80;;;;;;;;;;340225;29;1193;-80
2023/11/24 00:22:22;;;;;;;28.02;22.55;;;;;;;;;;341639;29;867;-80
2023/11/24 00:22:32;;;;;;;27.03;22.03;;;;;;;;;;341548;29;1557;-86
2023/11/24 00:22:43;;;;;;;26.73;21.45;;;;;;;;;;341193;29;1409;-80
2023/11/24 00:22:53;;;;;;;28.77;21.97;;;;;;;;;;340177;29;1329;-80
2023/11/24 00:23:04;;;;;;;28.83;22.67;;;;;;;;;;340021;29;1171;-80
2023/11/24 00:23:34;;;;;;;27.88;21.75;;;;;;;;;;341513;28;853;-80
2023/11/24 00:23:45;;;;;;;27.15;22.00;;;;;;;;;;339953;29;1293;-80
2023/11/24 00:23:56;;;;;;;27.42;22.38;;;;;;;;;;341596;29;792;-80
2023/11/24 00:24:07;;;;;;;27.88;22.55;;;;;;;;;;340239;29;1403;-89
2023/11/24 00:24:18;;;;;;;27.80;22.67;;;;;;;;;;340189;29;1425;-80
2023/11/24 00:24:28;;;;;;;27.02;22.30;;;;;;;;;;338981;29;1436;-80
2023/11/24 00:24:39;;;;;;;27.40;22.57;;;;;;;;;;338678;29;813;-80
2023/11/24 00:24:51;;;;;;;26.90;22.20;;;;;;;;;;337599;29;1558;-81
2023/11/24 00:25:02;;;;;;;28.27;22.38;;;;;;;;;;338953;29;892;-80
2023/11/24 00:25:13;;;;;;;28.20;22.30;;;;;;;;;;339056;29;805;-80
2023/11/24 00:25:23;;;;;;;27.08;22.15;;;;;;;;;;341547;29;1379;-80
2023/11/24 00:25:34;;;;;;;26.70;22.42;;;;;;;;;;340328;29;856;-88
2023/11/24 00:25:45;;;;;;;27.00;22.27;;;;;;;;;;341229;29;1181;-80
2023/11/24 00:25:56;;;;;;;27.58;22.58;;;;;;;;;;340161;29;1376;-79
2023/11/24 00:26:07;;;;;;;26.80;22.10;;;;;;;;;;338943;29;1402;-88
2023/11/24 00:26:20;;;;;;;27.25;22.25;;;;;;;;;;340352;29;844;-80
2023/11/24 00:26:31;;;;;;;27.73;22.25;;;;;;;;;;337614;29;908;-80
2023/11/24 00:26:42;;;;;;;27.50;22.30;;;;;;;;;;339833;29;1384;-80
2023/11/24 00:26:52;;;;;;;26.83;22.70;;;;;;;;;;338985;29;801;-80
2023/11/24 00:27:03;;;;;;;26.95;22.88;;;;;;;;;;339009;29;856;-87
2023/11/24 00:27:14;;;;;;;26.98;22.67;;;;;;;;;;338919;29;1322;-80
2023/11/24 00:27:24;;;;;;;27.63;23.08;;;;;;;;;;341592;29;1501;-80
2023/11/24 00:27:35;;;;;;;27.57;22.70;;;;;;;;;;341614;28;943;-88
2023/11/24 00:27:46;;;;;;;28.85;23.13;;;;;;;;;;339926;29;1565;-79
2023/11/24 00:27:56;;;;;;;27.73;22.08;;;;;;;;;;338841;29;1431;-80
2023/11/24 00:28:07;;;;;;;27.03;21.80;;;;;;;;;;340177;29;1167;-85
2023/11/24 00:28:18;;;;;;;25.90;21.35;;;;;;;;;;340322;29;852;-79
2023/11/24 00:28:29;;;;;;;26.47;21.43;;;;;;;;;;340239;29;1217;-80
2023/11/24 00:28:39;;;;;;;26.08;21.48;;;;;;;;;;337351;29;1183;-80
2023/11/24 00:28:51;;;;;;;24.93;21.23;;;;;;;;;;338854;29;1231;-80
2023/11/24 00:29:01;;;;;;;24.27;21.42;;;;;;;;;;340256;29;1258;-80
2023/11/24 00:29:13;;;;;;;24.67;21.53;;;;;;;;;;339009;29;883;-80
2023/11/24 00:29:23;;;;;;;25.88;21.70;;;;;;;;;;338940;29;1384;-80
2023/11/24 00:29:34;;;;;;;25.65;21.40;;;;;;;;;;338877;29;1429;-88
2023/11/24 00:29:44;;;;;;;25.87;21.43;;;;;;;;;;339990;29;1394;-80
2023/11/24 00:29:56;;;;;;;26.42;22.05;;;;;;;;;;341333;29;1284;-80
2023/11/24 00:30:07;;;;;;;26.88;22.00;;;;;;;;;;338972;29;856;-80
2023/11/24 00:30:18;;;;;;;27.15;21.42;;;;;;;;;;341517;29;1408;-79
2023/11/24 00:30:28;;;;;;;27.20;20.87;;;;;;;;;;344354;28;808;-80
2023/11/24 00:30:39;;;;;;;27.02;21.15;;;;;;;;;;341266;29;1306;-80
2023/11/24 00:30:49;;;;;;;25.83;21.70;;;;;;;;;;340990;28;1413;-80
2023/11/24 00:31:02;;;;;;;25.52;21.80;;;;;;;;;;338981;29;1578;-80
2023/11/24 00:31:13;;;;;;;23.83;21.10;;;;;;;;;;340268;29;1002;-80
2023/11/24 00:31:27;;;;;;;23.42;20.92;;;;;;;;;;339027;29;935;-80
2023/11/24 00:31:37;;;;;;;24.35;21.30;;;;;;;;;;342792;28;1567;-88
2023/11/24 00:31:48;;;;;;;24.33;20.83;;;;;;;;;;339967;29;1512;-89
2023/11/24 00:31:59;;;;;;;24.25;20.88;;;;;;;;;;341532;28;809;-80
2023/11/24 00:32:09;;;;;;;25.73;20.85;;;;;;;;;;341536;29;1218;-88
2023/11/24 00:32:19;;;;;;;25.67;21.23;;;;;;;;;;341515;29;1317;-80
2023/11/24 00:32:30;;;;;;;26.83;21.23;;;;;;;;;;342989;28;816;-80
2023/11/24 00:32:40;;;;;;;26.83;21.37;;;;;;;;;;338727;29;876;-79
2023/11/24 00:32:51;;;;;;;26.05;21.15;;;;;;;;;;340276;29;864;-80
2023/11/24 00:33:04;;;;;;;24.47;20.87;;;;;;;;;;340364;29;778;-80
2023/11/24 00:33:15;;;;;;;23.17;20.50;;;;;;;;;;340341;29;939;-80
2023/11/24 00:33:28;;;;;;;24.77;20.75;;;;;;;;;;341554;29;1353;-80
2023/11/24 00:33:38;;;;;;;25.60;20.95;;;;;;;;;;340170;29;1254;-80
2023/11/24 00:33:49;;;;;;;26.05;21.17;;;;;;;;;;338599;29;1151;-82
2023/11/24 00:34:00;;;;;;;24.40;21.37;;;;;;;;;;340118;29;1175;-80
2023/11/24 00:34:11;;;;;;;25.42;22.08;;;;;;;;;;340309;29;891;-89
2023/11/24 00:34:23;;;;;;;24.90;22.27;;;;;;;;;;338909;29;1429;-79
2023/11/24 00:34:33;;;;;;;25.13;22.10;;;;;;;;;;340254;29;915;-88
2023/11/24 00:34:44;;;;;;;26.02;22.42;;;;;;;;;;339959;29;1339;-80
2023/11/24 00:34:56;;;;;;;27.20;22.73;;;;;;;;;;341547;29;856;-80
2023/11/24 00:35:08;;;;;;;25.23;21.45;;;;;;;;;;340300;29;911;-89
2023/11/24 00:35:20;;;;;;;23.58;20.40;;;;;;;;;;341544;29;1266;-80
2023/11/24 00:35:32;;;;;;;24.05;20.33;;;;;;;;;;339051;29;900;-80
2023/11/24 00:35:43;;;;;;;23.98;20.55;;;;;;;;;;340048;29;848;-80
2023/11/24 00:35:53;;;;;;;24.45;21.45;;;;;;;;;;340247;29;817;-80
2023/11/24 00:36:06;;;;;;;26.35;22.90;;;;;;;;;;338886;29;813;-89
2023/11/24 00:36:16;;;;;;;26.88;23.55;;;;;;;;;;337644;29;1254;-80
2023/11/24 00:36:27;;;;;;;27.57;23.57;;;;;;;;;;337735;29;595;-79
2023/11/24 00:36:37;;;;;;;27.65;23.90;;;;;;;;;;340274;29;828;-80
2023/11/24 00:36:48;;;;;;;28.83;23.67;;;;;;;;;;339929;29;1532;-80
2023/11/24 00:36:58;;;;;;;28.87;23.50;;;;;;;;;;337524;29;1357;-80
2023/11/24 00:37:09;;;;;;;28.17;22.52;;;;;;;;;;337535;29;1289;-80
2023/11/24 00:37:19;;;;;;;27.63;22.40;;;;;;;;;;340230;29;1200;-80
2023/11/24 00:37:30;;;;;;;26.95;22.17;;;;;;;;;;340142;29;1957;-80
2023/11/24 00:37:40;;;;;;;25.37;22.23;;;;;;;;;;340276;29;939;-88
2023/11/24 00:37:51;;;;;;;24.88;22.02;;;;;;;;;;337244;29;1432;-88
2023/11/24 00:38:02;;;;;;;26.17;21.97;;;;;;;;;;338845;29;1382;-80
2023/11/24 00:38:12;;;;;;;26.00;21.13;;;;;;;;;;341271;29;883;-80
2023/11/24 00:38:23;;;;;;;26.53;21.27;;;;;;;;;;339050;29;812;-79
2023/11/24 00:38:34;;;;;;;26.63;21.70;;;;;;;;;;342913;28;892;-88
2023/11/24 00:38:44;;;;;;;27.10;22.55;;;;;;;;;;341374;29;840;-80
2023/11/24 00:38:55;;;;;;;26.13;22.17;;;;;;;;;;340215;29;1265;-80
2023/11/24 00:39:05;;;;;;;26.48;21.48;;;;;;;;;;340102;29;1217;-89
2023/11/24 00:39:17;;;;;;;27.33;21.30;;;;;;;;;;341637;29;800;-80
2023/11/24 00:39:28;;;;;;;26.50;21.35;;;;;;;;;;342975;28;915;-80
2023/11/24 00:39:38;;;;;;;25.95;21.98;;;;;;;;;;342775;28;1315;-80
2023/11/24 00:39:50;;;;;;;25.63;21.63;;;;;;;;;;339807;29;1304;-80
2023/11/24 00:40:07;;;;;;;25.77;21.42;;;;;;;;;;338962;29;880;-80
2023/11/24 00:40:18;;;;;;;24.83;20.92;;;;;;;;;;337640;29;963;-80
2023/11/24 00:40:29;;;;;;;25.15;21.42;;;;;;;;;;340232;29;1407;-80
2023/11/24 00:40:40;;;;;;;25.92;22.02;;;;;;;;;;340237;29;820;-89
2023/11/24 00:40:51;;;;;;;25.70;21.80;;;;;;;;;;339795;29;856;-81
2023/11/24 00:41:02;;;;;;;27.08;21.50;;;;;;;;;;340173;29;1293;-85
2023/11/24 00:41:13;;;;;;;27.80;21.60;;;;;;;;;;341571;29;955;-80
2023/11/24 00:41:24;;;;;;;25.83;21.43;;;;;;;;;;341559;29;1426;-80
2023/11/24 00:41:35;;;;;;;25.77;21.38;;;;;;;;;;342896;28;832;-89
2023/11/24 00:41:45;;;;;;;26.80;21.17;;;;;;;;;;339841;29;1191;-79
2023/11/24 00:41:56;;;;;;;26.73;21.45;;;;;;;;;;340197;29;1369;-79
2023/11/24 00:42:07;;;;;;;27.55;21.48;;;;;;;;;;340070;29;809;-80
2023/11/24 00:42:18;;;;;;;26.25;21.00;;;;;;;;;;337678;29;817;-80
2023/11/24 00:42:29;;;;;;;26.20;21.33;;;;;;;;;;340198;29;1286;-80
2023/11/24 00:42:43;;;;;;;25.98;21.27;;;;;;;;;;340110;29;1362;-80
2023/11/24 00:42:54;;;;;;;26.98;21.13;;;;;;;;;;339970;29;1304;-89
2023/11/24 00:43:05;;;;;;;27.42;20.92;;;;;;;;;;340075;29;1238;-80
2023/11/24 00:43:16;;;;;;;27.00;21.45;;;;;;;;;;340140;29;1395;-79
2023/11/24 00:43:26;;;;;;;27.23;21.40;;;;;;;;;;338906;29;1196;-80
2023/11/24 00:43:37;;;;;;;26.93;21.33;;;;;;;;;;338974;29;801;-89
2023/11/24 00:43:48;;;;;;;26.38;21.08;;;;;;;;;;338605;29;1341;-80
2023/11/24 00:44:01;;;;;;;25.50;21.10;;;;;;;;;;340385;29;940;-80
2023/11/24 00:44:12;;;;;;;24.35;21.20;;;;;;;;;;338814;29;1222;-80
2023/11/24 00:44:22;;;;;;;24.52;20.92;;;;;;;;;;340344;29;884;-80
2023/11/24 00:44:33;;;;;;;25.23;20.90;;;;;;;;;;338839;29;1454;-86
2023/11/24 00:44:43;;;;;;;25.70;20.95;;;;;;;;;;340166;29;1393;-80
2023/11/24 00:44:54;;;;;;;25.10;21.00;;;;;;;;;;338675;29;1388;-89
2023/11/24 00:45:06;;;;;;;26.50;21.83;;;;;;;;;;338858;29;1517;-89
2023/11/24 00:45:18;;;;;;;26.33;22.13;;;;;;;;;;338900;29;1413;-80
2023/11/24 00:45:28;;;;;;;25.33;22.35;;;;;;;;;;338880;29;825;-80
2023/11/24 00:45:39;;;;;;;24.58;21.83;;;;;;;;;;337266;29;1186;-80
2023/11/24 00:45:49;;;;;;;24.93;21.67;;;;;;;;;;337263;29;1237;-80
2023/11/24 00:46:00;;;;;;;25.85;21.45;;;;;;;;;;338966;29;1394;-88
2023/11/24 00:46:11;;;;;;;26.97;21.80;;;;;;;;;;340105;29;1178;-80
2023/11/24 00:46:21;;;;;;;27.42;22.42;;;;;;;;;;339021;29;903;-80
2023/11/24 00:46:32;;;;;;;26.70;22.27;;;;;;;;;;338903;29;1356;-80
2023/11/24 00:46:42;;;;;;;24.98;21.98;;;;;;;;;;342715;28;1389;-80
2023/11/24 00:46:53;;;;;;;24.13;21.30;;;;;;;;;;341335;29;1373;-88
2023/11/24 00:47:04;;;;;;;23.98;21.35;;;;;;;;;;340231;29;776;-81
2023/11/24 00:47:15;;;;;;;24.48;21.67;;;;;;;;;;341601;29;879;-80
2023/11/24 00:47:26;;;;;;;25.50;22.10;;;;;;;;;;341654;29;852;-80
2023/11/24 00:47:36;;;;;;;26.75;22.13;;;;;;;;;;340112;29;1300;-80
2023/11/24 00:47:47;;;;;;;27.73;22.43;;;;;;;;;;339994;29;875;-80
2023/11/24 00:47:57;;;;;;;27.17;22.13;;;;;;;;;;339049;29;924;-80
2023/11/24 00:48:08;;;;;;;26.60;21.97;;;;;;;;;;338931;29;887;-80
2023/11/24 00:48:20;;;;;;;26.30;21.80;;;;;;;;;;340284;29;876;-80
2023/11/24 00:48:31;;;;;;;26.60;22.05;;;;;;;;;;341638;29;852;-79
2023/11/24 00:48:41;;;;;;;27.15;22.77;;;;;;;;;;341487;29;836;-80
2023/11/24 00:48:52;;;;;;;26.37;23.07;;;;;;;;;;341393;29;855;-88
2023/11/24 00:49:02;;;;;;;26.23;22.95;;;;;;;;;;341602;29;903;-80
2023/11/24 00:49:13;;;;;;;25.83;22.83;;;;;;;;;;342811;28;1313;-79
2023/11/24 00:49:23;;;;;;;26.50;23.17;;;;;;;;;;340267;29;1107;-80
2023/11/24 00:49:34;;;;;;;26.17;23.25;;;;;;;;;;340090;29;1191;-88
2023/11/24 00:49:47;;;;;;;27.08;23.35;;;;;;;;;;340238;29;864;-80
2023/11/24 00:49:58;;;;;;;26.98;22.83;;;;;;;;;;338976;29;955;-79
2023/11/24 00:50:09;;;;;;;27.07;22.70;;;;;;;;;;338750;29;1308;-81
2023/11/24 00:50:19;;;;;;;26.63;22.63;;;;;;;;;;341426;29;1286;-80
2023/11/24 00:50:30;;;;;;;26.80;22.80;;;;;;;;;;339024;29;844;-80
2023/11/24 00:50:40;;;;;;;26.35;22.40;;;;;;;;;;338714;29;1398;-80
2023/11/24 00:50:51;;;;;;;26.60;22.53;;;;;;;;;;341256;29;1166;-80
2023/11/24 00:51:01;;;;;;;25.80;22.60;;;;;;;;;;341519;29;1364;-79
2023/11/24 00:51:12;;;;;;;26.30;23.10;;;;;;;;;;338804;29;1130;-80
2023/11/24 00:51:24;;;;;;;27.05;23.25;;;;;;;;;;340118;29;1369;-80
2023/11/24 00:51:35;;;;;;;27.73;23.10;;;;;;;;;;341474;29;911;-80
2023/11/24 00:51:45;;;;;;;25.77;22.40;;;;;;;;;;342821;28;1207;-80
2023/11/24 00:51:56;;;;;;;25.43;22.10;;;;;;;;;;341429;29;773;-88
2023/11/24 00:52:07;;;;;;;26.23;22.55;;;;;;;;;;340123;29;1363;-88
2023/11/24 00:52:17;;;;;;;27.25;22.40;;;;;;;;;;339997;29;1355;-80
2023/11/24 00:52:28;;;;;;;26.87;21.50;;;;;;;;;;341456;29;984;-80
2023/11/24 00:52:38;;;;;;;26.60;21.23;;;;;;;;;;341241;29;872;-80
2023/11/24 00:52:49;;;;;;;26.77;21.48;;;;;;;;;;336066;29;1339;-80
2023/11/24 00:53:01;;;;;;;28.47;22.00;;;;;;;;;;338471;29;1325;-80
2023/11/24 00:53:11;;;;;;;27.75;22.17;;;;;;;;;;338909;29;852;-80
2023/11/24 00:53:21;;;;;;;28.40;22.40;;;;;;;;;;336372;29;853;-80
2023/11/24 00:53:35;;;;;;;26.58;22.23;;;;;;;;;;340157;29;1322;-80
2023/11/24 00:53:46;;;;;;;27.65;22.17;;;;;;;;;;340182;29;864;-80
2023/11/24 00:53:56;;;;;;;27.47;22.60;;;;;;;;;;337425;29;1513;-88
2023/11/24 00:54:09;;;;;;;27.05;22.30;;;;;;;;;;338808;29;1198;-88
2023/11/24 00:54:19;;;;;;;25.60;21.30;;;;;;;;;;338935;29;841;-80
2023/11/24 00:54:30;;;;;;;24.97;21.80;;;;;;;;;;337717;29;889;-80
2023/11/24 00:54:40;;;;;;;26.02;22.55;;;;;;;;;;336270;29;868;-80
2023/11/24 00:54:51;;;;;;;27.37;23.00;;;;;;;;;;336228;29;904;-80
2023/11/24 00:55:02;;;;;;;27.88;22.80;;;;;;;;;;337730;29;591;-89
2023/11/24 00:55:13;;;;;;;27.58;22.75;;;;;;;;;;337696;29;931;-80
2023/11/24 00:55:24;;;;;;;26.42;22.52;;;;;;;;;;338957;29;809;-79
2023/11/24 00:55:34;;;;;;;25.60;22.10;;;;;;;;;;338906;29;837;-88
2023/11/24 00:55:45;;;;;;;25.43;21.73;;;;;;;;;;338954;29;857;-80
2023/11/24 00:55:56;;;;;;;26.17;22.25;;;;;;;;;;338744;29;801;-80
2023/11/24 00:56:07;;;;;;;25.90;22.08;;;;;;;;;;337631;29;935;-88
2023/11/24 00:56:17;;;;;;;26.27;21.73;;;;;;;;;;337672;29;818;-79
2023/11/24 00:56:28;;;;;;;27.30;21.63;;;;;;;;;;337681;29;814;-79
2023/11/24 00:56:38;;;;;;;28.20;21.40;;;;;;;;;;337605;29;952;-88
2023/11/24 00:56:49;;;;;;;29.83;21.85;;;;;;;;;;337698;29;833;-80
2023/11/24 00:56:59;;;;;;;29.60;22.07;;;;;;;;;;338380;29;806;-80
2023/11/24 00:57:10;;;;;;;29.20;22.35;;;;;;;;;;337571;29;841;-80
2023/11/24 00:57:21;;;;;;;26.23;22.03;;;;;;;;;;340170;29;872;-80
2023/11/24 00:57:32;;;;;;;26.10;21.70;;;;;;;;;;338798;29;1923;-80
2023/11/24 00:57:43;;;;;;;25.15;21.13;;;;;;;;;;338948;29;853;-80
2023/11/24 00:57:53;;;;;;;27.13;21.73;;;;;;;;;;338768;29;821;-84
2023/11/24 00:58:04;;;;;;;27.15;21.30;;;;;;;;;;338945;29;793;-87
2023/11/24 00:58:14;;;;;;;28.00;21.70;;;;;;;;;;339016;29;824;-79
2023/11/24 00:58:25;;;;;;;26.13;21.15;;;;;;;;;;338942;29;908;-79
2023/11/24 00:58:35;;;;;;;25.45;21.55;;;;;;;;;;336287;29;806;-80
2023/11/24 00:58:46;;;;;;;26.00;21.40;;;;;;;;;;340282;29;805;-80
2023/11/24 00:58:57;;;;;;;30.00;22.83;;;;;;;;;;340127;29;837;-89
2023/11/24 00:59:07;;;;;;;28.47;22.50;;;;;;;;;;338941;29;813;-88
2023/11/24 00:59:17;;;;;;;28.20;22.67;;;;;;;;;;338979;29;884;-80
2023/11/24 00:59:28;;;;;;;26.13;22.17;;;;;;;;;;338983;29;935;-80
2023/11/24 00:59:38;;;;;;;27.33;22.25;;;;;;;;;;337570;29;825;-89
2023/11/24 00:59:50;;;;;;;28.30;21.92;;;;;;;;;;337700;29;778;-80
2023/11/24 01:00:04;;;;;;;27.80;21.94;;;;;;;;;;337607;29;833;-81
2023/11/24 01:00:16;;;;;;;27.33;22.63;;;;;;;;;;337578;29;861;-80
2023/11/24 01:00:27;;;;;;;26.13;22.02;;;;;;;;;;338615;29;1004;-80
2023/11/24 01:00:38;;;;;;;26.63;22.40;;;;;;;;;;338848;29;810;-80
2023/11/24 01:00:48;;;;;;;27.42;22.27;;;;;;;;;;340177;29;864;-79
2023/11/24 01:01:00;;;;;;;27.73;21.90;;;;;;;;;;342641;28;820;-88
2023/11/24 01:01:11;;;;;;;27.48;22.23;;;;;;;;;;341511;29;942;-89
2023/11/24 01:01:23;;;;;;;28.17;23.67;;;;;;;;;;340138;29;1258;-80
2023/11/24 01:01:33;;;;;;;28.45;24.00;;;;;;;;;;338842;29;916;-85
2023/11/24 01:01:44;;;;;;;28.00;23.70;;;;;;;;;;341574;29;872;-80
2023/11/24 01:01:54;;;;;;;27.17;23.20;;;;;;;;;;341394;29;828;-87
2023/11/24 01:02:05;;;;;;;26.70;23.25;;;;;;;;;;338824;29;1285;-89
2023/11/24 01:02:16;;;;;;;28.05;23.08;;;;;;;;;;338999;29;876;-80
2023/11/24 01:02:26;;;;;;;28.75;22.80;;;;;;;;;;338829;29;1301;-80
2023/11/24 01:02:37;;;;;;;28.50;22.83;;;;;;;;;;338748;29;1282;-80
2023/11/24 01:02:47;;;;;;;27.67;23.08;;;;;;;;;;340320;29;833;-80
2023/11/24 01:02:58;;;;;;;28.87;23.47;;;;;;;;;;340026;29;1190;-89
2023/11/24 01:03:08;;;;;;;29.73;23.33;;;;;;;;;;338925;29;793;-81
2023/11/24 01:03:22;;;;;;;28.40;22.73;;;;;;;;;;339003;29;809;-80
2023/11/24 01:03:33;;;;;;;27.25;22.42;;;;;;;;;;336075;29;1542;-83
2023/11/24 01:03:43;;;;;;;27.65;22.35;;;;;;;;;;336350;29;857;-79
2023/11/24 01:03:54;;;;;;;27.67;22.20;;;;;;;;;;337332;29;1169;-80
2023/11/24 01:04:05;;;;;;;28.17;22.42;;;;;;;;;;337566;29;817;-88
2023/11/24 01:04:16;;;;;;;28.88;23.35;;;;;;;;;;337539;29;1452;-79
2023/11/24 01:04:27;;;;;;;28.10;23.63;;;;;;;;;;338830;29;1265;-79
2023/11/24 01:04:37;;;;;;;29.10;23.80;;;;;;;;;;338750;29;1175;-80
2023/11/24 01:04:48;;;;;;;27.92;23.73;;;;;;;;;;338823;29;1277;-80
2023/11/24 01:04:58;;;;;;;30.73;23.73;;;;;;;;;;338715;29;1441;-88
2023/11/24 01:05:09;;;;;;;30.60;23.52;;;;;;;;;;337633;29;868;-80
2023/11/24 01:05:20;;;;;;;30.87;23.47;;;;;;;;;;337594;29;1237;-80
2023/11/24 01:05:30;;;;;;;27.57;22.63;;;;;;;;;;340163;29;1273;-80
2023/11/24 01:05:41;;;;;;;29.42;24.67;;;;;;;;;;340084;29;1312;-80
2023/11/24 01:05:53;;;;;;;41.72;33.40;;;;;;;;;;340323;29;849;-79
2023/11/24 01:06:04;;;;;;;65.15;53.25;;;;;;;;;;340134;29;1417;-86
2023/11/24 01:06:14;;;;;;;71.75;58.88;;;;;;;;;;338814;29;1198;-78
2023/11/24 01:06:25;;;;;;;60.93;53.47;;;;;;;;;;337621;29;1378;-78